createdAt,value
2023-05-08T00:01:31.597Z,93166.59
2023-05-08T00:03:03.900Z,93156.88
2023-05-08T00:04:35.717Z,93158.47
2023-05-08T00:06:07.516Z,93157.31
2023-05-08T00:07:39.830Z,93151.47
2023-05-08T00:09:11.568Z,93166.00
2023-05-08T00:10:43.634Z,93162.69
2023-05-08T00:12:15.476Z,93160.63
2023-05-08T00:13:47.236Z,93164.13
2023-05-08T00:15:19.106Z,93160.16
2023-05-08T00:16:51.725Z,93170.38
2023-05-08T00:18:23.387Z,93161.03
2023-05-08T00:19:55.222Z,93165.03
2023-05-08T00:21:27.396Z,93162.06
2023-05-08T00:22:58.956Z,93160.22
2023-05-08T00:24:31.693Z,93170.59
2023-05-08T00:26:03.346Z,93164.72
2023-05-08T00:27:35.133Z,93174.28
2023-05-08T00:29:06.973Z,93171.44
2023-05-08T00:30:38.864Z,93178.63
2023-05-08T00:32:10.980Z,93171.00
2023-05-08T00:33:43.062Z,93174.72
2023-05-08T00:35:15.036Z,93168.69
2023-05-08T00:36:46.526Z,93172.06
2023-05-08T00:38:18.880Z,93171.72
2023-05-08T00:39:50.616Z,93172.06
2023-05-08T00:41:22.118Z,93173.19
2023-05-08T00:42:54.206Z,93170.00
2023-05-08T00:44:26.399Z,93171.13
2023-05-08T00:45:59.395Z,93174.16
2023-05-08T00:47:31.846Z,93173.03
2023-05-08T00:49:04.763Z,93173.84
2023-05-08T00:50:36.448Z,93178.44
2023-05-08T00:52:11.202Z,93174.94
2023-05-08T00:53:43.547Z,93178.13
2023-05-08T00:55:15.655Z,93178.13
2023-05-08T00:56:47.658Z,93180.84
2023-05-08T00:58:19.747Z,93177.97
2023-05-08T00:59:51.810Z,93180.88
2023-05-08T01:01:23.914Z,93182.97
2023-05-08T01:02:55.620Z,93187.31
2023-05-08T01:04:27.556Z,93187.16
2023-05-08T01:05:59.556Z,93181.94
2023-05-08T01:07:31.277Z,93185.88
2023-05-08T01:09:04.378Z,93186.22
2023-05-08T01:10:47.774Z,93184.28
2023-05-08T01:12:28.756Z,93188.16
2023-05-08T01:14:20.822Z,93184.16
2023-05-08T01:15:55.511Z,93184.97
2023-05-08T01:17:27.228Z,93181.47
2023-05-08T01:19:22.472Z,93184.97
2023-05-08T01:21:01.282Z,93182.88
2023-05-08T01:22:45.642Z,93174.91
2023-05-08T01:24:35.854Z,93173.38
2023-05-08T01:26:19.852Z,93167.03
2023-05-08T01:27:51.389Z,93175.50
2023-05-08T01:29:26.341Z,93176.13
2023-05-08T01:31:18.836Z,93172.16
2023-05-08T01:32:57.122Z,93175.97
2023-05-08T01:34:31.588Z,93177.09
2023-05-08T01:36:06.852Z,93174.06
2023-05-08T01:37:41.615Z,93175.34
2023-05-08T01:39:13.541Z,93170.88
2023-05-08T01:40:48.278Z,93168.31
2023-05-08T01:42:22.554Z,93169.25
2023-05-08T01:43:54.734Z,93179.91
2023-05-08T01:45:27.505Z,93171.63
2023-05-08T01:46:59.167Z,93171.78
2023-05-08T01:48:33.100Z,93165.69
2023-05-08T01:50:15.503Z,93167.75
2023-05-08T01:51:47.781Z,93166.63
2023-05-08T01:53:23.762Z,93170.78
2023-05-08T01:54:55.448Z,93166.47
2023-05-08T01:56:28.604Z,93164.91
2023-05-08T01:58:00.477Z,93169.38
2023-05-08T01:59:32.540Z,93169.22
2023-05-08T02:01:04.249Z,93176.22
2023-05-08T02:02:36.651Z,93169.22
2023-05-08T02:04:09.036Z,93171.13
2023-05-08T02:05:40.915Z,93167.97
2023-05-08T02:07:13.214Z,93162.88
2023-05-08T02:08:44.947Z,93171.47
2023-05-08T02:10:16.966Z,93170.97
2023-05-08T02:11:48.563Z,93171.34
2023-05-08T02:13:20.586Z,93174.03
2023-05-08T02:14:53.606Z,93174.81
2023-05-08T02:16:25.224Z,93167.84
2023-05-08T02:17:56.970Z,93175.16
2023-05-08T02:19:28.911Z,93179.91
2023-05-08T02:21:00.533Z,93176.06
2023-05-08T02:22:33.097Z,93178.47
2023-05-08T02:24:05.052Z,93180.69
2023-05-08T02:25:37.113Z,93176.75
2023-05-08T02:27:09.198Z,93175.16
2023-05-08T02:28:41.175Z,93178.50
2023-05-08T02:30:17.010Z,93176.09
2023-05-08T02:31:49.215Z,93185.50
2023-05-08T02:33:21.135Z,93190.09
2023-05-08T02:35:02.579Z,93183.09
2023-05-08T02:36:35.114Z,93190.09
2023-05-08T02:38:10.972Z,93181.84
2023-05-08T02:39:42.647Z,93188.69
2023-05-08T02:41:14.474Z,93187.75
2023-05-08T02:42:46.965Z,93188.38
2023-05-08T02:44:19.883Z,93187.59
2023-05-08T02:46:03.868Z,93191.72
2023-05-08T02:47:47.763Z,93192.22
2023-05-08T02:49:33.173Z,93183.78
2023-05-08T02:51:10.611Z,93184.31
2023-05-08T02:52:52.454Z,93192.25
2023-05-08T02:54:27.079Z,93191.00
2023-05-08T02:56:02.723Z,93183.69
2023-05-08T02:57:53.419Z,93194.34
2023-05-08T02:59:42.816Z,93191.16
2023-05-08T03:01:20.067Z,93182.41
2023-05-08T03:02:56.191Z,93192.28
2023-05-08T03:04:32.382Z,93190.84
2023-05-08T03:06:04.383Z,93190.22
2023-05-08T03:07:37.129Z,93188.63
2023-05-08T03:09:11.564Z,93179.56
2023-05-08T03:10:43.681Z,93182.91
2023-05-08T03:12:16.371Z,93182.56
2023-05-08T03:13:48.564Z,93188.28
2023-05-08T03:15:39.294Z,93181.13
2023-05-08T03:17:11.098Z,93183.97
2023-05-08T03:18:47.673Z,93185.56
2023-05-08T03:20:19.376Z,93187.16
2023-05-08T03:21:51.735Z,93186.84
2023-05-08T03:23:23.777Z,93191.28
2023-05-08T03:24:55.803Z,93191.59
2023-05-08T03:26:27.512Z,93187.16
2023-05-08T03:27:59.214Z,93186.38
2023-05-08T03:29:30.909Z,93194.78
2023-05-08T03:31:03.480Z,93197.16
2023-05-08T03:32:35.232Z,93190.97
2023-05-08T03:34:06.774Z,93198.28
2023-05-08T03:35:38.895Z,93193.00
2023-05-08T03:37:10.397Z,93193.81
2023-05-08T03:38:42.529Z,93194.47
2023-05-08T03:40:14.236Z,93189.06
2023-05-08T03:41:46.553Z,93190.97
2023-05-08T03:43:18.178Z,93197.97
2023-05-08T03:44:52.827Z,93195.25
2023-05-08T03:46:25.158Z,93202.06
2023-05-08T03:47:56.803Z,93204.16
2023-05-08T03:49:28.431Z,93201.28
2023-05-08T03:51:03.410Z,93201.47
2023-05-08T03:52:34.953Z,93206.22
2023-05-08T03:54:06.780Z,93204.78
2023-05-08T03:55:39.573Z,93208.75
2023-05-08T03:57:11.297Z,93201.78
2023-05-08T03:58:42.945Z,93208.75
2023-05-08T04:00:15.381Z,93204.16
2023-05-08T04:02:10.509Z,93206.25
2023-05-08T04:04:01.034Z,93206.41
2023-05-08T04:05:34.788Z,93205.16
2023-05-08T04:07:08.732Z,93212.16
2023-05-08T04:08:43.557Z,93210.56
2023-05-08T04:10:26.102Z,93206.56
2023-05-08T04:12:12.567Z,93212.78
2023-05-08T04:13:46.650Z,93211.03
2023-05-08T04:15:19.303Z,93209.75
2023-05-08T04:16:52.318Z,93211.81
2023-05-08T04:18:25.322Z,93216.09
2023-05-08T04:19:59.006Z,93214.22
2023-05-08T04:21:31.902Z,93206.25
2023-05-08T04:23:03.825Z,93214.31
2023-05-08T04:24:36.261Z,93214.78
2023-05-08T04:26:07.830Z,93212.88
2023-05-08T04:27:39.446Z,93211.25
2023-05-08T04:29:11.045Z,93216.31
2023-05-08T04:30:43.248Z,93217.25
2023-05-08T04:32:14.877Z,93220.41
2023-05-08T04:33:47.035Z,93222.16
2023-05-08T04:35:18.897Z,93225.63
2023-05-08T04:36:50.434Z,93225.91
2023-05-08T04:38:22.057Z,93218.41
2023-05-08T04:39:53.674Z,93218.34
2023-05-08T04:41:26.483Z,93223.72
2023-05-08T04:42:58.079Z,93214.09
2023-05-08T04:44:29.869Z,93211.22
2023-05-08T04:46:01.627Z,93220.06
2023-05-08T04:47:33.231Z,93222.41
2023-05-08T04:49:04.990Z,93209.91
2023-05-08T04:50:36.626Z,93217.81
2023-05-08T04:52:08.146Z,93210.88
2023-05-08T04:53:39.835Z,93210.88
2023-05-08T04:55:12.319Z,93212.59
2023-05-08T04:56:44.510Z,93205.84
2023-05-08T04:58:15.955Z,93208.94
2023-05-08T04:59:47.984Z,93203.88
2023-05-08T05:01:20.256Z,93209.81
2023-05-08T05:02:51.859Z,93204.44
2023-05-08T05:04:23.719Z,93198.91
2023-05-08T05:06:01.248Z,93203.00
2023-05-08T05:07:33.414Z,93205.50
2023-05-08T05:09:05.668Z,93198.19
2023-05-08T05:10:38.484Z,93197.56
2023-05-08T05:12:10.203Z,93201.28
2023-05-08T05:13:41.717Z,93202.28
2023-05-08T05:15:13.783Z,93199.56
2023-05-08T05:16:45.659Z,93197.19
2023-05-08T05:18:17.871Z,93198.66
2023-05-08T05:19:51.604Z,93192.78
2023-05-08T05:21:25.003Z,93203.72
2023-05-08T05:22:57.759Z,93196.69
2023-05-08T05:24:29.452Z,93196.78
2023-05-08T05:26:01.470Z,93191.00
2023-05-08T05:27:35.250Z,93195.50
2023-05-08T05:29:06.838Z,93199.03
2023-05-08T05:30:38.604Z,93197.28
2023-05-08T05:32:11.732Z,93192.06
2023-05-08T05:33:43.269Z,93197.28
2023-05-08T05:35:15.484Z,93204.75
2023-05-08T05:36:47.301Z,93207.97
2023-05-08T05:38:19.275Z,93198.69
2023-05-08T05:39:52.104Z,93196.41
2023-05-08T05:41:24.570Z,93206.81
2023-05-08T05:42:56.318Z,93198.03
2023-05-08T05:44:27.784Z,93193.78
2023-05-08T05:46:06.284Z,93200.03
2023-05-08T05:47:38.331Z,93197.88
2023-05-08T05:49:10.037Z,93191.59
2023-05-08T05:50:41.696Z,93191.88
2023-05-08T05:52:13.684Z,93194.16
2023-05-08T05:53:45.720Z,93189.94
2023-05-08T05:55:17.280Z,93193.28
2023-05-08T05:56:48.895Z,93195.09
2023-05-08T05:58:20.492Z,93197.06
2023-05-08T05:59:53.632Z,93195.38
2023-05-08T06:01:29.482Z,93193.34
2023-05-08T06:03:02.621Z,93191.75
2023-05-08T06:04:35.196Z,93194.50
2023-05-08T06:06:07.037Z,93190.81
2023-05-08T06:07:38.793Z,93198.47
2023-05-08T06:09:10.557Z,93196.72
2023-05-08T06:10:42.959Z,93192.06
2023-05-08T06:12:14.754Z,93189.06
2023-05-08T06:13:48.169Z,93189.31
2023-05-08T06:15:21.627Z,93192.50
2023-05-08T06:16:53.496Z,93194.69
2023-05-08T06:18:25.304Z,93193.00
2023-05-08T06:19:58.825Z,93193.44
2023-05-08T06:21:30.898Z,93197.31
2023-05-08T06:23:02.744Z,93203.56
2023-05-08T06:24:35.921Z,93202.16
2023-05-08T06:26:08.346Z,93198.13
2023-05-08T06:27:40.103Z,93190.66
2023-05-08T06:29:12.097Z,93192.56
2023-05-08T06:30:44.185Z,93198.38
2023-05-08T06:32:16.164Z,93192.75
2023-05-08T06:33:47.907Z,93199.69
2023-05-08T06:35:19.917Z,93203.91
2023-05-08T06:36:51.593Z,93208.31
2023-05-08T06:38:23.290Z,93205.09
2023-05-08T06:40:10.338Z,93208.31
2023-05-08T06:41:43.591Z,93203.00
2023-05-08T06:43:15.812Z,93202.59
2023-05-08T06:44:47.633Z,93199.66
2023-05-08T06:46:19.694Z,93203.88
2023-05-08T06:47:51.373Z,93204.53
2023-05-08T06:49:23.291Z,93204.69
2023-05-08T06:50:55.834Z,93210.00
2023-05-08T06:52:27.722Z,93203.84
2023-05-08T06:53:59.817Z,93203.97
2023-05-08T06:55:31.461Z,93204.31
2023-05-08T06:57:03.811Z,93202.22
2023-05-08T06:58:36.047Z,93205.16
2023-05-08T07:00:08.488Z,93208.09
2023-05-08T07:01:40.660Z,93209.31
2023-05-08T07:03:13.107Z,93210.78
2023-05-08T07:04:44.945Z,93202.78
2023-05-08T07:06:16.618Z,93200.88
2023-05-08T07:07:48.262Z,93200.84
2023-05-08T07:09:19.927Z,93200.50
2023-05-08T07:10:51.878Z,93203.69
2023-05-08T07:12:23.523Z,93189.31
2023-05-08T07:13:55.575Z,93195.47
2023-05-08T07:15:27.379Z,93205.50
2023-05-08T07:16:59.223Z,93203.50
2023-05-08T07:18:31.273Z,93201.41
2023-05-08T07:20:03.633Z,93198.03
2023-05-08T07:21:35.613Z,93206.69
2023-05-08T07:23:07.617Z,93207.84
2023-05-08T07:24:39.706Z,93208.81
2023-05-08T07:26:11.540Z,93200.88
2023-05-08T07:27:43.616Z,93200.44
2023-05-08T07:29:15.603Z,93203.75
2023-05-08T07:30:47.247Z,93201.97
2023-05-08T07:32:19.399Z,93205.44
2023-05-08T07:33:51.247Z,93199.44
2023-05-08T07:35:22.980Z,93207.47
2023-05-08T07:36:54.912Z,93204.38
2023-05-08T07:38:26.752Z,93206.13
2023-05-08T07:39:58.273Z,93202.34
2023-05-08T07:41:30.680Z,93208.47
2023-05-08T07:43:02.619Z,93207.97
2023-05-08T07:44:43.505Z,93212.16
2023-05-08T07:46:22.796Z,93209.28
2023-05-08T07:47:55.365Z,93204.16
2023-05-08T07:49:27.104Z,93211.84
2023-05-08T07:50:59.000Z,93212.09
2023-05-08T07:52:30.721Z,93215.19
2023-05-08T07:54:02.593Z,93205.84
2023-05-08T07:55:34.291Z,93206.81
2023-05-08T07:57:06.248Z,93205.06
2023-05-08T07:58:38.615Z,93201.00
2023-05-08T08:00:11.701Z,93205.53
2023-05-08T08:01:47.416Z,93207.38
2023-05-08T08:03:19.281Z,93209.53
2023-05-08T08:04:51.784Z,93209.22
2023-05-08T08:06:23.683Z,93208.19
2023-05-08T08:07:55.219Z,93206.34
2023-05-08T08:09:26.987Z,93206.50
2023-05-08T08:10:58.994Z,93199.19
2023-05-08T08:12:32.533Z,93203.22
2023-05-08T08:14:04.313Z,93203.22
2023-05-08T08:15:35.993Z,93205.09
2023-05-08T08:17:07.787Z,93203.09
2023-05-08T08:18:39.499Z,93201.94
2023-05-08T08:20:11.427Z,93200.06
2023-05-08T08:21:43.883Z,93210.28
2023-05-08T08:23:15.612Z,93208.78
2023-05-08T08:24:47.332Z,93209.56
2023-05-08T08:26:19.085Z,93211.94
2023-05-08T08:27:50.720Z,93210.38
2023-05-08T08:29:22.292Z,93213.53
2023-05-08T08:30:53.996Z,93217.06
2023-05-08T08:32:25.723Z,93222.16
2023-05-08T08:33:57.870Z,93221.31
2023-05-08T08:35:30.435Z,93218.56
2023-05-08T08:37:02.131Z,93216.63
2023-05-08T08:38:33.750Z,93213.09
2023-05-08T08:40:06.000Z,93215.84
2023-05-08T08:41:39.737Z,93219.38
2023-05-08T08:43:11.433Z,93214.59
2023-05-08T08:44:43.315Z,93210.13
2023-05-08T08:46:15.675Z,93214.78
2023-05-08T08:47:48.946Z,93217.16
2023-05-08T08:49:25.009Z,93215.13
2023-05-08T08:50:59.169Z,93211.63
2023-05-08T08:52:32.018Z,93214.63
2023-05-08T08:54:05.183Z,93209.78
2023-05-08T08:55:37.986Z,93204.69
2023-05-08T08:57:09.644Z,93207.38
2023-05-08T08:58:44.072Z,93208.78
2023-05-08T09:00:15.880Z,93205.56
2023-05-08T09:01:57.310Z,93201.88
2023-05-08T09:03:29.068Z,93203.19
2023-05-08T09:05:00.863Z,93206.50
2023-05-08T09:06:35.604Z,93204.50
2023-05-08T09:08:07.919Z,93202.28
2023-05-08T09:09:41.033Z,93193.88
2023-05-08T09:11:12.626Z,93194.44
2023-05-08T09:12:45.312Z,93199.75
2023-05-08T09:14:16.975Z,93191.69
2023-05-08T09:15:50.819Z,93188.84
2023-05-08T09:17:22.891Z,93189.19
2023-05-08T09:18:54.798Z,93188.03
2023-05-08T09:20:26.858Z,93188.47
2023-05-08T09:22:01.770Z,93190.78
2023-05-08T09:23:35.576Z,93189.63
2023-05-08T09:25:07.534Z,93184.44
2023-05-08T09:26:39.690Z,93179.19
2023-05-08T09:28:21.757Z,93177.63
2023-05-08T09:30:07.354Z,93176.16
2023-05-08T09:31:44.251Z,93179.25
2023-05-08T09:33:16.172Z,93178.84
2023-05-08T09:34:52.289Z,93171.00
2023-05-08T09:36:29.676Z,93183.06
2023-05-08T09:38:01.451Z,93183.06
2023-05-08T09:39:33.403Z,93184.56
2023-05-08T09:41:11.919Z,93182.19
2023-05-08T09:42:44.040Z,93182.19
2023-05-08T09:44:16.701Z,93183.34
2023-05-08T09:45:48.410Z,93180.97
2023-05-08T09:47:22.759Z,93182.72
2023-05-08T09:49:14.883Z,93179.91
2023-05-08T09:50:46.575Z,93180.41
2023-05-08T09:52:20.524Z,93180.34
2023-05-08T09:53:53.463Z,93173.38
2023-05-08T09:55:26.904Z,93171.81
2023-05-08T09:56:58.760Z,93171.19
2023-05-08T09:58:42.883Z,93164.94
2023-05-08T10:00:15.251Z,93170.69
2023-05-08T10:01:47.000Z,93157.16
2023-05-08T10:03:19.100Z,93158.78
2023-05-08T10:04:50.734Z,93167.06
2023-05-08T10:06:22.512Z,93152.63
2023-05-08T10:07:57.149Z,93159.00
2023-05-08T10:09:36.021Z,93150.47
2023-05-08T10:11:18.252Z,93161.16
2023-05-08T10:12:53.126Z,93156.72
2023-05-08T10:14:24.927Z,93161.31
2023-05-08T10:15:56.393Z,93156.97
2023-05-08T10:17:32.268Z,93162.66
2023-05-08T10:19:06.017Z,93170.31
2023-05-08T10:20:40.858Z,93158.81
2023-05-08T10:22:12.428Z,93161.53
2023-05-08T10:23:44.153Z,93161.41
2023-05-08T10:25:18.626Z,93149.19
2023-05-08T10:27:06.281Z,93156.66
2023-05-08T10:28:47.097Z,93159.59
2023-05-08T10:30:20.053Z,93159.66
2023-05-08T10:31:52.630Z,93166.94
2023-05-08T10:33:25.094Z,93157.97
2023-05-08T10:34:57.012Z,93155.66
2023-05-08T10:36:30.880Z,93157.00
2023-05-08T10:38:02.856Z,93150.50
2023-05-08T10:39:34.622Z,93145.19
2023-05-08T10:41:06.381Z,93146.97
2023-05-08T10:42:38.128Z,93143.72
2023-05-08T10:44:09.869Z,93149.78
2023-05-08T10:45:41.497Z,93147.19
2023-05-08T10:47:32.226Z,93146.53
2023-05-08T10:49:09.731Z,93143.50
2023-05-08T10:50:50.893Z,93141.94
2023-05-08T10:52:33.281Z,93137.94
2023-05-08T10:54:22.102Z,93137.59
2023-05-08T10:55:54.632Z,93132.41
2023-05-08T10:57:26.214Z,93134.84
2023-05-08T10:58:58.033Z,93123.56
2023-05-08T11:00:52.386Z,93125.22
2023-05-08T11:02:29.043Z,93116.66
2023-05-08T11:04:01.394Z,93122.34
2023-05-08T11:05:34.448Z,93117.84
2023-05-08T11:07:06.125Z,93114.75
2023-05-08T11:08:46.970Z,93117.13
2023-05-08T11:10:19.090Z,93114.34
2023-05-08T11:12:03.661Z,93102.59
2023-05-08T11:13:36.135Z,93109.81
2023-05-08T11:15:09.521Z,93108.72
2023-05-08T11:17:02.280Z,93105.63
2023-05-08T11:20:10.182Z,93102.19
2023-05-08T11:21:57.546Z,93099.91
2023-05-08T11:23:29.574Z,93096.56
2023-05-08T11:25:01.240Z,93100.56
2023-05-08T11:26:39.779Z,93090.13
2023-05-08T11:28:11.843Z,93094.19
2023-05-08T11:29:45.887Z,93089.94
2023-05-08T11:31:17.809Z,93095.06
2023-05-08T11:33:05.333Z,93091.56
2023-05-08T11:34:44.472Z,93090.16
2023-05-08T11:36:17.244Z,93073.00
2023-05-08T11:38:09.543Z,93071.06
2023-05-08T11:39:41.309Z,93071.09
2023-05-08T11:41:22.491Z,93066.44
2023-05-08T11:42:55.822Z,93064.13
2023-05-08T11:44:28.234Z,93066.50
2023-05-08T11:46:04.432Z,93063.44
2023-05-08T11:47:39.872Z,93060.94
2023-05-08T11:49:18.431Z,93056.91
2023-05-08T11:50:51.270Z,93055.38
2023-05-08T11:52:22.915Z,93056.19
2023-05-08T11:53:54.682Z,93049.53
2023-05-08T11:55:26.550Z,93049.56
2023-05-08T11:56:59.970Z,93047.59
2023-05-08T11:58:32.057Z,93050.75
2023-05-08T12:00:05.927Z,93053.13
2023-05-08T12:01:38.750Z,93048.06
2023-05-08T12:03:14.650Z,93044.22
2023-05-08T12:04:47.291Z,93038.34
2023-05-08T12:06:19.881Z,93037.56
2023-05-08T12:07:51.812Z,93042.28
2023-05-08T12:09:23.461Z,93036.03
2023-05-08T12:10:57.420Z,93033.31
2023-05-08T12:12:41.380Z,93027.84
2023-05-08T12:14:13.980Z,93018.03
2023-05-08T12:15:48.568Z,93021.19
2023-05-08T12:17:21.429Z,93034.53
2023-05-08T12:18:53.477Z,93018.84
2023-05-08T12:20:25.797Z,93025.50
2023-05-08T12:21:58.401Z,93030.59
2023-05-08T12:23:30.649Z,93033.72
2023-05-08T12:25:03.980Z,93027.44
2023-05-08T12:26:37.448Z,93034.13
2023-05-08T12:28:09.592Z,93031.38
2023-05-08T12:29:45.034Z,93017.59
2023-05-08T12:31:17.391Z,93017.97
2023-05-08T12:32:49.435Z,93012.84
2023-05-08T12:34:21.096Z,93008.94
2023-05-08T12:35:52.962Z,93006.91
2023-05-08T12:37:26.988Z,93004.53
2023-05-08T12:39:14.758Z,93004.06
2023-05-08T12:40:47.948Z,93001.25
2023-05-08T12:42:19.569Z,93000.50
2023-05-08T12:43:51.415Z,92997.00
2023-05-08T12:45:28.491Z,92997.81
2023-05-08T12:47:00.481Z,92988.34
2023-05-08T12:48:32.249Z,92993.44
2023-05-08T12:50:04.290Z,92998.94
2023-05-08T12:51:36.192Z,92985.91
2023-05-08T12:53:08.658Z,92982.34
2023-05-08T12:54:41.721Z,92981.16
2023-05-08T12:56:13.434Z,92978.00
2023-05-08T12:57:45.140Z,92976.78
2023-05-08T12:59:17.116Z,92970.81
2023-05-08T13:00:50.115Z,92964.09
2023-05-08T13:02:24.150Z,92967.66
2023-05-08T13:04:02.272Z,92961.44
2023-05-08T13:05:38.690Z,92965.81
2023-05-08T13:07:10.422Z,92961.03
2023-05-08T13:08:42.185Z,92961.47
2023-05-08T13:10:14.178Z,92970.22
2023-05-08T13:11:46.395Z,92980.03
2023-05-08T13:13:19.002Z,92979.31
2023-05-08T13:14:50.880Z,92981.69
2023-05-08T13:16:22.669Z,92980.53
2023-05-08T13:17:54.671Z,92979.38
2023-05-08T13:19:27.671Z,92971.94
2023-05-08T13:21:00.327Z,92970.41
2023-05-08T13:22:32.085Z,92969.66
2023-05-08T13:24:04.013Z,92958.28
2023-05-08T13:25:36.168Z,92966.50
2023-05-08T13:27:07.845Z,92965.34
2023-05-08T13:28:40.024Z,92964.59
2023-05-08T13:30:12.654Z,92974.84
2023-05-08T13:31:44.431Z,92973.66
2023-05-08T13:33:16.821Z,92971.31
2023-05-08T13:34:51.105Z,92980.72
2023-05-08T13:36:24.575Z,92979.13
2023-05-08T13:37:56.672Z,92981.13
2023-05-08T13:39:28.265Z,92979.16
2023-05-08T13:40:59.992Z,92977.19
2023-05-08T13:42:31.985Z,92985.00
2023-05-08T13:44:03.687Z,92984.13
2023-05-08T13:45:35.557Z,92993.47
2023-05-08T13:47:07.378Z,93002.81
2023-05-08T13:48:39.273Z,93011.34
2023-05-08T13:50:11.100Z,93018.28
2023-05-08T13:51:46.985Z,93010.75
2023-05-08T13:53:21.588Z,93012.59
2023-05-08T13:54:53.774Z,93009.28
2023-05-08T13:56:26.155Z,93011.00
2023-05-08T13:57:58.008Z,93013.50
2023-05-08T14:01:56.582Z,93033.53
2023-05-08T14:03:28.693Z,93030.94
2023-05-08T14:05:00.375Z,93034.97
2023-05-08T14:06:32.718Z,93037.41
2023-05-08T14:08:07.655Z,93030.53
2023-05-08T14:09:39.225Z,93040.75
2023-05-08T14:11:11.380Z,93041.50
2023-05-08T14:12:43.132Z,93048.25
2023-05-08T14:14:14.727Z,93050.38
2023-05-08T14:15:46.480Z,93057.63
2023-05-08T14:17:18.271Z,93060.28
2023-05-08T14:18:50.105Z,93064.31
2023-05-08T14:20:22.066Z,93062.88
2023-05-08T14:21:54.038Z,93071.94
2023-05-08T14:23:26.016Z,93070.84
2023-05-08T14:24:57.597Z,93076.41
2023-05-08T14:26:29.300Z,93083.84
2023-05-08T14:28:01.054Z,93084.47
2023-05-08T14:29:33.558Z,93093.63
2023-05-08T14:31:05.345Z,93081.53
2023-05-08T14:32:37.073Z,93079.16
2023-05-08T14:34:08.947Z,93076.91
2023-05-08T14:35:43.495Z,93078.47
2023-05-08T14:37:15.117Z,93084.78
2023-05-08T14:38:47.085Z,93086.41
2023-05-08T14:40:18.794Z,93090.97
2023-05-08T14:42:14.347Z,93101.16
2023-05-08T14:43:43.491Z,93096.03
2023-05-08T14:45:15.352Z,93100.63
2023-05-08T14:46:47.669Z,93102.41
2023-05-08T14:48:19.334Z,93103.84
2023-05-08T14:49:53.869Z,93105.66
2023-05-08T14:51:25.906Z,93101.78
2023-05-08T14:52:57.721Z,93102.94
2023-05-08T14:54:29.565Z,93105.34
2023-05-08T14:56:01.586Z,93101.19
2023-05-08T14:57:33.371Z,93102.09
2023-05-08T14:59:05.052Z,93095.66
2023-05-08T15:00:36.798Z,93102.13
2023-05-08T15:02:08.418Z,93095.56
2023-05-08T15:03:40.272Z,93100.97
2023-05-08T15:07:03.702Z,93097.78
2023-05-08T15:08:35.443Z,93101.53
2023-05-08T15:10:07.273Z,93102.06
2023-05-08T15:11:38.948Z,93092.19
2023-05-08T15:13:10.614Z,93102.94
2023-05-08T15:14:42.176Z,93099.28
2023-05-08T15:16:13.940Z,93098.78
2023-05-08T15:17:46.227Z,93091.97
2023-05-08T15:19:17.988Z,93090.91
2023-05-08T15:20:49.527Z,93097.72
2023-05-08T15:22:21.047Z,93091.41
2023-05-08T15:23:53.447Z,93097.72
2023-05-08T15:25:26.721Z,93097.91
2023-05-08T15:26:58.363Z,93099.69
2023-05-08T15:28:30.362Z,93097.91
2023-05-08T15:30:02.079Z,93095.28
2023-05-08T15:31:33.736Z,93096.53
2023-05-08T15:33:05.732Z,93088.81
2023-05-08T15:34:38.653Z,93085.72
2023-05-08T15:36:12.832Z,93088.44
2023-05-08T15:37:44.357Z,93083.78
2023-05-08T15:39:15.957Z,93090.81
2023-05-08T15:40:47.543Z,93089.31
2023-05-08T15:42:20.790Z,93083.22
2023-05-08T15:43:52.337Z,93083.22
2023-05-08T15:45:23.883Z,93084.81
2023-05-08T15:46:55.540Z,93087.53
2023-05-08T15:48:27.124Z,93083.22
2023-05-08T15:49:59.064Z,93087.41
2023-05-08T15:51:30.818Z,93095.13
2023-05-08T15:53:02.313Z,93087.66
2023-05-08T15:54:34.752Z,93089.59
2023-05-08T15:56:06.424Z,93091.88
2023-05-08T15:57:38.156Z,93092.69
2023-05-08T15:59:09.622Z,93099.69
2023-05-08T16:00:45.313Z,93104.34
2023-05-08T16:02:17.414Z,93102.78
2023-05-08T16:03:49.495Z,93103.13
2023-05-08T16:05:21.516Z,93102.06
2023-05-08T16:06:53.370Z,93109.44
2023-05-08T16:08:25.509Z,93117.25
2023-05-08T16:09:56.992Z,93114.97
2023-05-08T16:11:34.490Z,93115.31
2023-05-08T16:13:06.601Z,93125.41
2023-05-08T16:14:38.352Z,93119.06
2023-05-08T16:16:10.102Z,93116.25
2023-05-08T16:17:41.851Z,93111.97
2023-05-08T16:19:15.063Z,93112.31
2023-05-08T16:20:46.779Z,93110.00
2023-05-08T16:22:18.500Z,93113.28
2023-05-08T16:23:50.503Z,93113.38
2023-05-08T16:25:22.742Z,93115.75
2023-05-08T16:26:54.447Z,93111.34
2023-05-08T16:28:26.176Z,93116.09
2023-05-08T16:29:57.945Z,93110.31
2023-05-08T16:31:29.962Z,93112.25
2023-05-08T16:33:01.959Z,93110.81
2023-05-08T16:34:35.406Z,93115.63
2023-05-08T16:36:07.122Z,93111.50
2023-05-08T16:37:39.364Z,93105.94
2023-05-08T16:39:12.100Z,93108.47
2023-05-08T16:40:43.977Z,93116.78
2023-05-08T16:42:15.691Z,93128.34
2023-05-08T16:43:47.845Z,93118.97
2023-05-08T16:45:19.468Z,93124.84
2023-05-08T16:46:51.437Z,93126.88
2023-05-08T16:48:23.138Z,93129.72
2023-05-08T16:49:55.815Z,93133.63
2023-05-08T16:51:27.978Z,93127.19
2023-05-08T16:52:59.818Z,93131.94
2023-05-08T16:54:31.385Z,93140.16
2023-05-08T16:56:03.467Z,93141.75
2023-05-08T16:57:35.215Z,93138.69
2023-05-08T16:59:07.316Z,93143.34
2023-05-08T17:00:39.027Z,93141.06
2023-05-08T17:02:12.276Z,93142.66
2023-05-08T17:03:44.513Z,93152.97
2023-05-08T17:05:16.725Z,93143.69
2023-05-08T17:06:49.199Z,93146.75
2023-05-08T17:08:20.905Z,93146.31
2023-05-08T17:09:55.898Z,93141.81
2023-05-08T17:11:27.551Z,93143.53
2023-05-08T17:12:59.318Z,93139.84
2023-05-08T17:14:31.025Z,93128.75
2023-05-08T17:16:03.087Z,93135.22
2023-05-08T17:17:34.865Z,93142.34
2023-05-08T17:19:06.537Z,93134.34
2023-05-08T17:20:41.146Z,93144.66
2023-05-08T17:22:13.364Z,93146.94
2023-05-08T17:23:45.774Z,93151.22
2023-05-08T17:25:17.508Z,93151.31
2023-05-08T17:26:49.267Z,93151.22
2023-05-08T17:28:20.784Z,93161.31
2023-05-08T17:29:52.936Z,93153.94
2023-05-08T17:31:24.515Z,93165.84
2023-05-08T17:32:56.404Z,93173.88
2023-05-08T17:34:28.166Z,93174.31
2023-05-08T17:36:00.954Z,93177.03
2023-05-08T17:37:32.647Z,93179.75
2023-05-08T17:39:04.496Z,93174.91
2023-05-08T17:40:37.084Z,93181.00
2023-05-08T17:42:09.086Z,93176.25
2023-05-08T17:43:40.850Z,93174.78
2023-05-08T17:45:12.485Z,93173.66
2023-05-08T17:46:44.435Z,93168.09
2023-05-08T17:48:16.468Z,93170.63
2023-05-08T17:49:48.175Z,93166.97
2023-05-08T17:51:20.801Z,93163.13
2023-05-08T17:52:52.533Z,93163.47
2023-05-08T17:54:24.266Z,93172.75
2023-05-08T17:55:56.265Z,93181.59
2023-05-08T17:57:27.973Z,93176.38
2023-05-08T17:58:59.486Z,93182.59
2023-05-08T18:00:31.050Z,93174.00
2023-05-08T18:02:02.801Z,93182.16
2023-05-08T18:03:34.673Z,93181.34
2023-05-08T18:05:07.143Z,93185.31
2023-05-08T18:06:38.869Z,93181.81
2023-05-08T18:08:10.845Z,93182.59
2023-05-08T18:09:42.601Z,93185.66
2023-05-08T18:11:17.914Z,93190.28
2023-05-08T18:12:49.961Z,93194.50
2023-05-08T18:14:22.102Z,93200.72
2023-05-08T18:15:53.706Z,93203.78
2023-05-08T18:17:25.698Z,93202.19
2023-05-08T18:18:57.739Z,93205.38
2023-05-08T18:20:29.409Z,93204.09
2023-05-08T18:22:01.943Z,93207.81
2023-05-08T18:23:33.651Z,93206.69